Time;durP1;ratioP1;P1;durP2;ratioP2;P2;SDS_P1;SDS_P2;PMS_P1;PMS_P2;Temp;Humidity;BMP_temperature;BMP_pressure;BME280_temperature;BME280_humidity;BME280_pressure;Samples;Min_cycle;Max_cycle;Signal;HPM_P1;HPM_P2
2023/05/28 00:01:18;;;;;;;8.25;4.43;;;16.50;99.90;;;;;;5013479;28;20337;-75
2023/05/28 00:03:43;;;;;;;10.18;4.85;;;16.60;99.90;;;;;;4995291;28;20266;-75
2023/05/28 00:06:09;;;;;;;6.93;4.05;;;16.60;99.90;;;;;;5015490;28;20176;-76
2023/05/28 00:08:35;;;;;;;7.75;4.40;;;16.60;99.90;;;;;;4997438;28;20181;-75
2023/05/28 00:11:01;;;;;;;11.25;4.85;;;16.60;99.90;;;;;;5014956;28;20215;-75
2023/05/28 00:13:28;;;;;;;11.57;5.40;;;16.50;99.90;;;;;;5013567;28;20209;-76
2023/05/28 00:15:53;;;;;;;9.80;4.80;;;16.50;99.90;;;;;;5010208;28;20268;-75
2023/05/28 00:18:19;;;;;;;9.65;5.28;;;16.50;99.90;;;;;;5014456;28;20181;-74
2023/05/28 00:20:45;;;;;;;8.93;5.43;;;16.40;99.90;;;;;;5015354;28;20224;-76
2023/05/28 00:23:12;;;;;;;14.60;5.20;;;16.40;99.90;;;;;;5012609;28;20713;-75
2023/05/28 00:25:38;;;;;;;7.65;4.22;;;16.30;99.90;;;;;;5012911;28;20219;-75
2023/05/28 00:28:03;;;;;;;10.77;4.63;;;16.20;99.90;;;;;;4991540;28;20283;-79
2023/05/28 00:30:29;;;;;;;8.68;4.80;;;16.20;99.90;;;;;;4995329;28;20742;-77
2023/05/28 00:32:55;;;;;;;8.38;4.95;;;16.10;99.90;;;;;;5013289;28;20193;-75
2023/05/28 00:35:20;;;;;;;10.70;4.85;;;16.10;99.90;;;;;;5012859;28;20205;-76
2023/05/28 00:37:46;;;;;;;7.35;4.70;;;16.10;99.90;;;;;;5012925;28;20259;-77
2023/05/28 00:40:15;;;;;;;10.18;5.53;;;16.20;99.90;;;;;;5013106;28;20209;-75
2023/05/28 00:42:41;;;;;;;9.43;4.70;;;16.20;99.90;;;;;;4994792;28;20235;-76
2023/05/28 00:45:07;;;;;;;9.77;4.70;;;16.20;99.90;;;;;;5012440;28;20664;-77
2023/05/28 00:47:33;;;;;;;10.18;5.03;;;16.10;99.90;;;;;;5013043;28;20681;-75
2023/05/28 00:50:00;;;;;;;12.85;5.30;;;16.10;99.90;;;;;;5013083;28;20201;-77
2023/05/28 00:52:27;;;;;;;8.02;4.78;;;16.10;99.90;;;;;;5005337;28;20231;-76
2023/05/28 00:54:55;;;;;;;11.63;5.30;;;16.00;99.90;;;;;;5011609;28;20680;-75
2023/05/28 00:57:23;;;;;;;10.82;4.72;;;16.00;99.90;;;;;;5010405;28;20232;-75
2023/05/28 00:59:50;;;;;;;7.35;4.95;;;16.00;99.90;;;;;;5009617;28;20209;-76
2023/05/28 01:02:16;;;;;;;9.52;5.53;;;15.80;99.90;;;;;;5012469;28;20205;-77
2023/05/28 01:04:41;;;;;;;11.40;4.90;;;15.70;99.90;;;;;;4993539;28;20703;-77
2023/05/28 01:07:07;;;;;;;11.38;4.75;;;15.70;99.90;;;;;;5040039;22;20753;-72
2023/05/28 01:09:33;;;;;;;11.57;5.57;;;15.70;99.90;;;;;;5025807;28;20263;-73
2023/05/28 01:12:00;;;;;;;9.80;5.20;;;15.70;99.90;;;;;;5029410;28;20663;-73
2023/05/28 01:14:26;;;;;;;10.15;5.28;;;15.70;99.90;;;;;;5039521;28;20675;-73
2023/05/28 01:16:52;;;;;;;8.90;5.05;;;15.60;99.90;;;;;;5040825;28;20257;-73
2023/05/28 01:19:21;;;;;;;12.80;5.25;;;15.50;99.90;;;;;;5039473;28;20219;-72
2023/05/28 01:21:53;;;;;;;9.13;5.20;;;15.50;99.90;;;;;;5039937;28;20277;-72
2023/05/28 01:24:18;;;;;;;7.93;4.95;;;15.50;99.90;;;;;;5046273;28;20172;-72
2023/05/28 01:26:44;;;;;;;8.75;5.00;;;15.60;99.90;;;;;;5044477;28;20242;-72
2023/05/28 01:29:14;;;;;;;10.15;4.93;;;15.60;99.90;;;;;;5019614;28;20239;-72
2023/05/28 01:31:40;;;;;;;7.38;5.00;;;15.70;99.90;;;;;;5025085;28;20211;-72
2023/05/28 01:34:06;;;;;;;12.05;5.28;;;15.70;99.90;;;;;;5032468;28;20209;-73
2023/05/28 01:36:38;;;;;;;9.32;4.70;;;15.70;99.90;;;;;;5046617;28;20228;-73
2023/05/28 01:39:05;;;;;;;9.20;4.93;;;15.70;99.90;;;;;;5036657;28;20196;-73
2023/05/28 01:41:30;;;;;;;10.25;4.80;;;15.70;99.90;;;;;;5045941;28;20222;-73
2023/05/28 01:43:57;;;;;;;12.85;5.03;;;15.70;99.90;;;;;;5034876;28;20201;-72
2023/05/28 01:46:24;;;;;;;10.35;4.50;;;15.60;99.90;;;;;;5037578;28;20260;-73
2023/05/28 01:48:50;;;;;;;10.10;5.38;;;15.60;99.90;;;;;;5034968;28;20229;-73
2023/05/28 01:51:25;;;;;;;7.75;4.45;;;15.60;99.90;;;;;;5038542;28;20683;-72
2023/05/28 01:53:52;;;;;;;8.88;5.43;;;15.60;99.90;;;;;;5034023;28;20183;-72
2023/05/28 01:56:18;;;;;;;12.35;5.28;;;15.50;99.90;;;;;;5023105;28;20652;-72
2023/05/28 01:58:43;;;;;;;8.32;4.15;;;15.60;99.90;;;;;;5013877;28;20269;-73
2023/05/28 02:01:20;;;;;;;11.20;4.65;;;15.60;99.90;;;;;;5037505;28;20231;-73
2023/05/28 02:03:46;;;;;;;10.60;4.82;;;15.50;99.90;;;;;;5041601;28;20242;-73
2023/05/28 02:06:12;;;;;;;9.65;4.95;;;15.50;99.90;;;;;;5040763;28;20238;-73
2023/05/28 02:08:37;;;;;;;12.98;5.47;;;15.40;99.90;;;;;;5039639;28;20195;-72
2023/05/28 02:11:03;;;;;;;15.85;8.43;;;15.20;99.90;;;;;;5042687;28;20208;-73
2023/05/28 02:13:30;;;;;;;8.98;5.20;;;15.10;99.90;;;;;;5033905;28;20307;-72
2023/05/28 02:15:56;;;;;;;10.80;5.40;;;15.00;99.90;;;;;;5032763;28;20208;-73
2023/05/28 02:18:21;;;;;;;9.27;5.20;;;15.00;99.90;;;;;;5011897;28;20177;-72
2023/05/28 02:20:47;;;;;;;12.25;5.82;;;14.90;99.90;;;;;;5033023;28;20247;-72
2023/05/28 02:23:12;;;;;;;9.93;5.45;;;14.90;99.90;;;;;;5020571;28;20678;-72
2023/05/28 02:25:38;;;;;;;11.13;4.88;;;15.00;99.90;;;;;;5035093;28;20208;-72
2023/05/28 02:28:04;;;;;;;11.85;4.93;;;15.00;99.90;;;;;;5032365;28;20214;-73
2023/05/28 02:30:30;;;;;;;9.23;5.05;;;15.10;99.90;;;;;;5036647;28;20207;-73
2023/05/28 02:32:56;;;;;;;12.32;5.50;;;15.20;99.90;;;;;;5034477;28;20169;-73
2023/05/28 02:35:23;;;;;;;11.50;5.35;;;15.20;99.90;;;;;;5038634;28;20207;-72
2023/05/28 02:37:49;;;;;;;11.95;5.30;;;15.20;99.90;;;;;;5019023;28;20735;-72
2023/05/28 02:40:15;;;;;;;11.48;5.18;;;15.20;99.90;;;;;;5021635;28;20319;-72
2023/05/28 02:42:40;;;;;;;9.52;4.72;;;15.20;99.90;;;;;;5042677;28;20854;-73
2023/05/28 02:45:06;;;;;;;10.55;5.28;;;15.20;99.90;;;;;;5041045;28;20176;-74
2023/05/28 02:47:32;;;;;;;9.93;5.18;;;15.20;99.90;;;;;;5023239;28;20227;-72
2023/05/28 02:49:58;;;;;;;9.27;5.07;;;15.10;99.90;;;;;;5028008;28;20232;-73
2023/05/28 02:52:23;;;;;;;12.13;5.57;;;15.10;99.90;;;;;;5032587;28;20200;-72
2023/05/28 02:54:49;;;;;;;9.07;5.47;;;15.10;99.90;;;;;;5047749;28;20208;-73
2023/05/28 02:57:15;;;;;;;12.38;5.93;;;15.10;99.90;;;;;;5030860;28;20283;-74
2023/05/28 02:59:40;;;;;;;8.82;5.05;;;15.00;99.90;;;;;;5046622;28;20207;-74
2023/05/28 03:02:06;;;;;;;8.02;4.93;;;15.00;99.90;;;;;;5047108;28;20223;-72
2023/05/28 03:04:32;;;;;;;9.95;5.13;;;15.00;99.90;;;;;;5043678;28;20229;-72
2023/05/28 03:06:58;;;;;;;7.43;5.03;;;15.00;99.90;;;;;;5027241;28;20208;-72
2023/05/28 03:09:23;;;;;;;10.13;5.78;;;15.00;99.90;;;;;;5043834;28;20670;-72
2023/05/28 03:11:49;;;;;;;9.95;5.18;;;15.10;99.90;;;;;;5044786;28;20203;-72
2023/05/28 03:14:15;;;;;;;15.13;6.00;;;15.10;99.90;;;;;;5025369;28;20207;-72
2023/05/28 03:16:40;;;;;;;9.27;4.93;;;14.90;99.90;;;;;;5041228;28;20689;-72
2023/05/28 03:19:06;;;;;;;8.65;5.18;;;15.00;99.90;;;;;;5042697;28;20302;-71
2023/05/28 03:21:32;;;;;;;11.57;5.80;;;15.10;99.90;;;;;;5033499;28;20204;-71
2023/05/28 03:23:57;;;;;;;10.65;5.32;;;15.10;99.90;;;;;;5042044;28;20255;-72
2023/05/28 03:26:23;;;;;;;10.10;5.10;;;15.20;99.90;;;;;;5037366;28;20644;-72
2023/05/28 03:28:49;;;;;;;11.35;5.57;;;15.30;99.90;;;;;;5037064;28;20638;-72
2023/05/28 03:31:14;;;;;;;11.93;5.47;;;15.30;99.90;;;;;;5049125;28;20690;-72
2023/05/28 03:33:40;;;;;;;9.60;5.32;;;15.50;99.90;;;;;;5050659;28;20587;-72
2023/05/28 03:36:06;;;;;;;13.20;5.25;;;15.70;99.90;;;;;;5051662;28;20569;-72
2023/05/28 03:38:32;;;;;;;10.25;5.75;;;15.90;99.90;;;;;;5050116;28;20175;-70
2023/05/28 03:40:58;;;;;;;13.15;6.70;;;16.10;99.90;;;;;;5033365;28;20219;-68
2023/05/28 03:43:24;;;;;;;10.57;5.35;;;16.40;99.90;;;;;;5050066;28;20219;-70
2023/05/28 03:45:50;;;;;;;11.30;4.88;;;16.70;99.90;;;;;;5048411;28;20559;-70
2023/05/28 03:48:16;;;;;;;11.15;5.57;;;16.90;99.90;;;;;;5030598;28;20180;-70
2023/05/28 03:50:41;;;;;;;8.93;5.20;;;17.10;99.90;;;;;;5046795;28;20176;-70
2023/05/28 03:53:07;;;;;;;9.43;5.30;;;17.40;99.90;;;;;;5028582;28;20211;-71
2023/05/28 03:55:33;;;;;;;11.25;5.25;;;17.60;99.90;;;;;;5025839;28;20691;-70
2023/05/28 03:57:58;;;;;;;11.20;6.10;;;17.70;99.90;;;;;;5047031;28;20698;-71
2023/05/28 04:00:24;;;;;;;10.52;5.22;;;17.60;99.90;;;;;;5025614;28;20242;-71
2023/05/28 04:02:50;;;;;;;13.50;5.78;;;17.70;99.90;;;;;;5044957;28;20180;-72
2023/05/28 04:05:16;;;;;;;10.88;5.45;;;17.80;99.90;;;;;;5024555;28;20253;-72
2023/05/28 04:07:41;;;;;;;10.73;4.93;;;17.80;99.90;;;;;;5050218;28;20223;-72
2023/05/28 04:10:07;;;;;;;10.48;5.25;;;18.30;99.90;;;;;;5034352;28;20806;-72
2023/05/28 04:12:33;;;;;;;8.43;4.97;;;18.50;99.90;;;;;;5050292;28;20262;-71
2023/05/28 04:15:00;;;;;;;11.35;5.60;;;19.10;99.90;;;;;;5030937;28;20176;-71
2023/05/28 04:17:27;;;;;;;9.63;5.60;;;19.10;99.90;;;;;;5049501;28;20207;-71
2023/05/28 04:19:55;;;;;;;8.88;5.32;;;19.40;99.90;;;;;;5048973;28;20234;-71
2023/05/28 04:22:23;;;;;;;9.68;5.57;;;19.50;99.90;;;;;;5046788;28;20211;-71
2023/05/28 04:24:51;;;;;;;11.32;5.80;;;19.80;99.90;;;;;;5047029;28;20286;-72
2023/05/28 04:27:17;;;;;;;9.90;4.82;;;20.00;99.90;;;;;;5047756;28;20193;-71
2023/05/28 04:29:43;;;;;;;11.63;4.68;;;20.00;99.90;;;;;;5045686;28;20515;-72
2023/05/28 04:32:09;;;;;;;10.07;5.18;;;20.80;99.90;;;;;;5028573;28;20211;-72
2023/05/28 04:34:36;;;;;;;9.65;4.63;;;21.10;99.90;;;;;;5042399;28;20235;-72
2023/05/28 04:37:04;;;;;;;9.60;4.97;;;21.50;99.90;;;;;;5045885;28;20287;-72
2023/05/28 04:39:29;;;;;;;8.70;4.85;;;21.70;99.90;;;;;;5041767;28;20227;-72
2023/05/28 04:41:55;;;;;;;10.05;5.00;;;22.30;99.90;;;;;;5026929;28;20172;-72
2023/05/28 04:44:25;;;;;;;8.73;4.78;;;22.40;99.90;;;;;;5039979;28;20203;-72
2023/05/28 04:46:51;;;;;;;8.82;4.95;;;22.60;99.90;;;;;;5050596;28;20226;-72
2023/05/28 04:49:17;;;;;;;8.38;4.82;;;22.60;99.90;;;;;;5051415;28;20228;-72
2023/05/28 04:51:43;;;;;;;9.48;5.32;;;22.10;99.90;;;;;;5028784;28;20228;-72
2023/05/28 04:54:08;;;;;;;8.30;4.95;;;21.60;99.90;;;;;;5049538;28;20215;-72
2023/05/28 04:56:35;;;;;;;7.80;4.82;;;21.90;99.90;;;;;;5048442;28;20657;-72
2023/05/28 04:59:04;;;;;;;8.93;4.75;;;21.70;99.90;;;;;;5027951;28;20247;-71
2023/05/28 05:01:32;;;;;;;10.48;4.93;;;22.10;99.90;;;;;;5033116;28;20213;-71
2023/05/28 05:03:58;;;;;;;9.88;4.88;;;22.60;99.90;;;;;;5034959;28;20204;-72
2023/05/28 05:06:23;;;;;;;10.07;4.97;;;22.70;99.90;;;;;;5037404;28;20227;-71
2023/05/28 05:08:49;;;;;;;9.73;5.25;;;22.10;99.90;;;;;;5021033;28;20175;-71
2023/05/28 05:11:15;;;;;;;9.77;5.30;;;21.80;99.90;;;;;;5020126;28;20291;-71
2023/05/28 05:13:41;;;;;;;5.07;4.30;;;22.60;99.90;;;;;;5039363;28;20337;-71
2023/05/28 05:16:07;;;;;;;9.38;4.88;;;22.70;99.90;;;;;;5038341;28;20342;-72
2023/05/28 05:18:32;;;;;;;11.10;5.15;;;22.90;99.90;;;;;;5042295;28;20203;-71
2023/05/28 05:20:58;;;;;;;9.68;5.32;;;23.20;99.90;;;;;;5039885;28;20677;-72
2023/05/28 05:23:24;;;;;;;6.80;4.97;;;23.60;99.90;;;;;;5021670;28;20200;-71
2023/05/28 05:25:49;;;;;;;7.57;4.82;;;23.70;99.90;;;;;;5032032;28;20213;-72
2023/05/28 05:28:15;;;;;;;11.82;5.18;;;23.50;99.90;;;;;;5032685;28;20208;-72
2023/05/28 05:30:41;;;;;;;9.20;5.18;;;23.70;99.90;;;;;;5012250;28;20200;-72
2023/05/28 05:33:07;;;;;;;9.98;4.88;;;23.80;99.90;;;;;;5032479;28;20250;-72
2023/05/28 05:35:33;;;;;;;7.43;4.55;;;23.50;99.90;;;;;;5017617;28;20185;-72
2023/05/28 05:37:58;;;;;;;8.15;5.28;;;23.70;99.90;;;;;;5034317;28;20211;-72
2023/05/28 05:40:24;;;;;;;8.32;4.75;;;23.80;99.90;;;;;;5035368;28;20223;-72
2023/05/28 05:42:50;;;;;;;6.50;4.85;;;24.50;99.30;;;;;;5036604;28;20265;-72
2023/05/28 05:45:15;;;;;;;9.35;4.55;;;24.60;97.50;;;;;;5031373;28;20179;-72
2023/05/28 05:47:41;;;;;;;7.40;4.60;;;24.30;97.10;;;;;;5019199;28;20673;-72
2023/05/28 05:50:07;;;;;;;8.75;5.00;;;24.00;97.00;;;;;;5023042;28;20207;-72
2023/05/28 05:52:33;;;;;;;7.72;5.00;;;23.80;97.60;;;;;;5019841;28;20208;-73
2023/05/28 05:54:58;;;;;;;10.23;4.57;;;24.00;97.10;;;;;;5022696;28;20200;-71
2023/05/28 05:57:26;;;;;;;7.05;4.55;;;23.80;96.80;;;;;;5038036;28;20246;-71
2023/05/28 05:59:51;;;;;;;7.55;4.53;;;24.30;96.30;;;;;;5018720;28;20231;-72
2023/05/28 06:02:17;;;;;;;5.38;4.03;;;24.70;95.40;;;;;;5034251;28;20692;-72
2023/05/28 06:04:43;;;;;;;7.43;4.05;;;25.40;94.20;;;;;;5029800;28;20698;-72
2023/05/28 06:07:08;;;;;;;8.18;4.47;;;25.40;93.60;;;;;;5018023;28;20311;-71
2023/05/28 06:09:34;;;;;;;8.25;4.30;;;25.60;92.30;;;;;;5013435;28;20524;-72
2023/05/28 06:12:01;;;;;;;9.30;3.90;;;27.00;91.50;;;;;;5033403;28;20647;-72
2023/05/28 06:14:27;;;;;;;6.40;4.53;;;27.30;88.30;;;;;;5027870;28;20208;-72
2023/05/28 06:16:53;;;;;;;7.40;4.38;;;27.50;85.20;;;;;;5015404;28;20227;-72
2023/05/28 06:19:19;;;;;;;5.72;3.67;;;27.80;85.40;;;;;;5034208;28;20216;-72
2023/05/28 06:21:44;;;;;;;7.00;3.85;;;27.70;83.30;;;;;;5029082;28;20212;-72
2023/05/28 06:24:11;;;;;;;7.97;4.50;;;27.50;83.60;;;;;;5014870;28;20558;-72
2023/05/28 06:26:36;;;;;;;9.40;4.22;;;27.20;81.90;;;;;;5030337;28;20204;-72
2023/05/28 06:29:02;;;;;;;6.25;3.63;;;27.00;81.60;;;;;;5011381;28;20208;-72
2023/05/28 06:31:28;;;;;;;6.68;4.18;;;26.80;81.40;;;;;;5029294;28;20699;-72
2023/05/28 06:33:54;;;;;;;6.70;3.55;;;27.10;82.20;;;;;;5009390;28;20641;-72
2023/05/28 06:36:19;;;;;;;6.88;3.70;;;27.70;78.60;;;;;;5027275;28;20212;-72
2023/05/28 06:38:45;;;;;;;6.15;3.97;;;27.50;76.40;;;;;;5008218;28;20207;-72
2023/05/28 06:41:10;;;;;;;8.27;3.75;;;27.40;78.10;;;;;;5003690;28;20208;-72
2023/05/28 06:43:37;;;;;;;6.65;4.18;;;26.60;75.50;;;;;;5005517;28;20266;-72
2023/05/28 06:46:03;;;;;;;7.43;4.20;;;27.50;78.70;;;;;;5019600;28;20240;-72
2023/05/28 06:48:29;;;;;;;7.43;3.67;;;28.00;76.10;;;;;;5004843;28;20240;-72
2023/05/28 06:50:56;;;;;;;5.90;3.25;;;29.00;76.70;;;;;;5023093;28;20246;-72
2023/05/28 06:53:21;;;;;;;4.22;3.25;;;29.70;72.20;;;;;;5006447;28;20694;-72
2023/05/28 06:55:47;;;;;;;6.03;3.58;;;29.50;71.50;;;;;;5024884;28;20212;-72
2023/05/28 06:58:13;;;;;;;5.50;3.60;;;28.40;69.40;;;;;;5026733;28;20212;-72
2023/05/28 07:00:38;;;;;;;7.63;3.83;;;27.90;70.40;;;;;;5024886;28;20659;-72
2023/05/28 07:03:05;;;;;;;6.55;3.53;;;27.80;70.80;;;;;;5008400;28;20184;-73
2023/05/28 07:05:31;;;;;;;5.93;3.90;;;28.10;69.50;;;;;;5003185;28;20230;-73
2023/05/28 07:07:56;;;;;;;8.27;3.17;;;28.60;68.80;;;;;;5001643;28;20802;-73
2023/05/28 07:10:23;;;;;;;8.10;3.65;;;28.70;65.80;;;;;;5029198;28;20705;-73
2023/05/28 07:12:48;;;;;;;6.25;3.50;;;29.10;66.00;;;;;;5006197;28;20207;-72
2023/05/28 07:15:15;;;;;;;3.80;3.25;;;28.00;65.60;;;;;;5008779;28;20546;-72
2023/05/28 07:17:41;;;;;;;5.88;2.90;;;28.90;66.20;;;;;;5028339;28;20394;-73
2023/05/28 07:20:08;;;;;;;3.78;2.60;;;28.30;66.70;;;;;;5022053;28;20703;-72
2023/05/28 07:22:34;;;;;;;7.55;3.60;;;29.30;64.90;;;;;;5008218;28;20204;-72
2023/05/28 07:24:59;;;;;;;4.38;2.92;;;29.00;64.10;;;;;;5002584;28;20207;-71
2023/05/28 07:27:25;;;;;;;7.85;2.85;;;29.60;65.30;;;;;;5021056;28;20295;-72
2023/05/28 07:29:51;;;;;;;6.53;3.13;;;29.90;65.10;;;;;;5020343;28;20215;-71
2023/05/28 07:32:16;;;;;;;6.35;4.70;;;30.00;63.80;;;;;;5022423;28;20220;-72
2023/05/28 07:34:42;;;;;;;5.70;3.08;;;28.40;64.10;;;;;;5006477;28;20224;-72
2023/05/28 07:37:07;;;;;;;4.75;2.90;;;28.90;65.40;;;;;;5025324;28;20291;-72
2023/05/28 07:39:33;;;;;;;6.93;4.03;;;29.10;64.60;;;;;;5026796;28;20219;-71
2023/05/28 07:41:59;;;;;;;3.92;2.65;;;30.30;64.70;;;;;;5026467;28;20245;-71
2023/05/28 07:44:25;;;;;;;4.32;3.20;;;31.20;62.30;;;;;;5027020;28;20710;-71
2023/05/28 07:46:50;;;;;;;4.95;3.20;;;31.60;61.50;;;;;;5027413;28;20226;-72
2023/05/28 07:49:16;;;;;;;6.50;3.40;;;31.00;61.80;;;;;;5029932;28;20580;-69
2023/05/28 07:51:42;;;;;;;5.10;2.70;;;31.00;61.70;;;;;;5028908;28;20257;-72
2023/05/28 07:54:08;;;;;;;5.50;3.08;;;31.60;60.70;;;;;;5026335;28;20184;-73
2023/05/28 07:56:33;;;;;;;5.03;3.50;;;31.70;61.50;;;;;;5033484;28;20743;-72
2023/05/28 07:58:59;;;;;;;6.72;2.38;;;30.90;59.20;;;;;;5031773;28;20204;-69
2023/05/28 08:01:24;;;;;;;8.35;3.42;;;30.60;58.50;;;;;;5035119;28;20591;-71
2023/05/28 08:03:53;;;;;;;5.70;2.90;;;29.30;59.20;;;;;;5030653;28;20296;-72
2023/05/28 08:06:20;;;;;;;5.15;2.70;;;29.80;60.40;;;;;;5031114;28;20214;-71
2023/05/28 08:08:46;;;;;;;4.28;2.60;;;29.50;60.10;;;;;;5033246;28;20172;-72
2023/05/28 08:11:13;;;;;;;4.55;2.67;;;29.00;61.70;;;;;;5034458;28;20211;-73
2023/05/28 08:13:39;;;;;;;5.43;2.72;;;29.60;60.80;;;;;;5032817;28;20282;-73
2023/05/28 08:16:05;;;;;;;5.25;4.03;;;29.60;59.70;;;;;;5033641;28;20224;-72
2023/05/28 08:18:30;;;;;;;7.32;3.90;;;28.30;59.50;;;;;;5034854;28;20203;-71
2023/05/28 08:20:56;;;;;;;6.45;3.17;;;27.40;61.10;;;;;;5039735;28;20207;-71
2023/05/28 08:23:22;;;;;;;6.05;2.90;;;27.00;61.30;;;;;;5037758;28;20208;-72
2023/05/28 08:25:47;;;;;;;5.75;2.55;;;26.90;61.60;;;;;;5040868;28;20654;-72
2023/05/28 08:28:16;;;;;;;6.97;3.08;;;27.70;62.10;;;;;;5035909;28;20204;-71
2023/05/28 08:30:42;;;;;;;7.00;2.80;;;28.30;61.70;;;;;;5019867;28;20686;-70
2023/05/28 08:33:08;;;;;;;5.97;2.72;;;27.70;61.00;;;;;;5039865;28;20206;-72
2023/05/28 08:35:33;;;;;;;3.97;2.22;;;28.50;61.70;;;;;;5043533;28;20200;-72
2023/05/28 08:37:59;;;;;;;4.63;2.33;;;28.60;60.30;;;;;;5034191;28;20256;-72
2023/05/28 08:40:27;;;;;;;6.97;2.33;;;28.80;59.80;;;;;;5020846;28;20757;-72
2023/05/28 08:42:52;;;;;;;5.53;2.85;;;27.70;60.00;;;;;;5042386;28;20260;-73
2023/05/28 08:45:18;;;;;;;4.93;2.88;;;27.70;60.90;;;;;;5033920;28;20573;-71
2023/05/28 08:47:45;;;;;;;4.85;2.42;;;26.60;61.30;;;;;;5018412;28;20208;-71
2023/05/28 08:50:14;;;;;;;5.28;2.88;;;26.20;62.20;;;;;;5017198;28;20211;-73
2023/05/28 08:52:41;;;;;;;3.10;2.63;;;26.60;62.40;;;;;;5034766;28;20211;-72
2023/05/28 08:55:07;;;;;;;6.50;2.33;;;26.50;61.70;;;;;;5036014;28;20212;-71
2023/05/28 08:57:33;;;;;;;4.05;2.38;;;27.10;61.70;;;;;;5037010;28;20219;-72
2023/05/28 09:00:06;;;;;;;5.63;3.58;;;25.90;63.90;;;;;;5033833;28;20571;-71
2023/05/28 09:02:32;;;;;;;4.80;2.88;;;25.30;64.50;;;;;;5041448;28;20230;-70
2023/05/28 09:04:58;;;;;;;6.43;2.75;;;25.60;65.30;;;;;;5031746;28;20295;-71
2023/05/28 09:07:23;;;;;;;4.13;2.63;;;25.90;65.10;;;;;;5030044;28;20223;-70
2023/05/28 09:09:50;;;;;;;4.60;2.45;;;25.50;66.10;;;;;;5033770;28;20210;-70
2023/05/28 09:12:21;;;;;;;7.78;3.53;;;25.60;66.70;;;;;;5033573;28;20180;-72
2023/05/28 09:14:51;;;;;;;6.43;3.17;;;25.30;65.30;;;;;;5030212;28;20635;-71
2023/05/28 09:17:17;;;;;;;6.47;2.97;;;25.30;65.70;;;;;;5024997;28;20338;-71
2023/05/28 09:19:52;;;;;;;3.95;2.55;;;25.80;73.30;;;;;;5029014;28;20648;-71
2023/05/28 09:22:18;;;;;;;4.40;2.47;;;24.90;65.40;;;;;;5014729;28;20593;-69
2023/05/28 09:24:48;;;;;;;4.47;2.50;;;25.20;64.10;;;;;;5015097;28;20208;-71
2023/05/28 09:27:19;;;;;;;6.40;2.90;;;25.40;64.90;;;;;;5028256;28;20203;-70
2023/05/28 09:29:45;;;;;;;5.03;2.70;;;25.80;64.40;;;;;;5031223;28;20314;-71
2023/05/28 09:32:10;;;;;;;4.03;2.10;;;26.20;64.60;;;;;;5025638;28;20215;-70
2023/05/28 09:34:42;;;;;;;4.22;2.35;;;26.40;64.10;;;;;;5008813;28;20587;-68
2023/05/28 09:37:08;;;;;;;2.83;2.15;;;25.90;63.00;;;;;;5003851;28;20205;-68
2023/05/28 09:39:34;;;;;;;4.25;2.38;;;25.10;63.30;;;;;;5028869;28;20627;-73
2023/05/28 09:42:06;;;;;;;7.00;2.47;;;25.20;64.30;;;;;;5028586;28;20176;-73
2023/05/28 09:44:36;;;;;;;4.25;2.60;;;23.90;65.20;;;;;;5030330;28;20204;-72
2023/05/28 09:47:11;;;;;;;4.75;3.03;;;24.50;66.70;;;;;;5021790;28;20215;-72
2023/05/28 09:49:37;;;;;;;5.63;2.45;;;24.80;66.30;;;;;;5041294;28;20208;-71
2023/05/28 09:52:04;;;;;;;4.32;2.80;;;25.10;65.00;;;;;;5040389;28;20261;-72
2023/05/28 09:54:31;;;;;;;4.90;2.70;;;24.90;65.00;;;;;;5040025;28;20605;-71
2023/05/28 09:57:05;;;;;;;4.10;2.40;;;24.40;65.40;;;;;;5034651;28;20200;-72
2023/05/28 09:59:32;;;;;;;6.78;4.25;;;24.30;67.10;;;;;;5032186;28;20304;-72
2023/05/28 10:02:19;;;;;;;4.28;2.70;;;24.60;67.50;;;;;;5032920;28;20219;-73
2023/05/28 10:04:47;;;;;;;9.30;3.28;;;25.00;66.70;;;;;;5036552;28;20208;-72
2023/05/28 10:07:14;;;;;;;6.05;2.60;;;25.10;65.90;;;;;;5033469;28;20220;-72
2023/05/28 10:09:40;;;;;;;4.68;2.50;;;24.80;65.30;;;;;;5034590;28;20278;-73
2023/05/28 10:12:13;;;;;;;5.10;2.15;;;25.00;65.10;;;;;;5017888;28;20178;-73
2023/05/28 10:14:39;;;;;;;4.00;2.47;;;25.50;64.50;;;;;;5021003;28;20176;-72
2023/05/28 10:17:08;;;;;;;4.55;2.50;;;25.80;64.80;;;;;;5035596;28;20230;-72
2023/05/28 10:19:35;;;;;;;6.05;2.72;;;25.30;65.20;;;;;;5036501;28;20244;-72
2023/05/28 10:22:01;;;;;;;6.75;2.63;;;24.30;65.90;;;;;;5020929;28;20304;-72
2023/05/28 10:24:26;;;;;;;3.78;2.08;;;23.90;66.90;;;;;;5018500;28;20801;-72
2023/05/28 10:26:53;;;;;;;4.72;2.60;;;23.90;67.40;;;;;;5034753;28;20210;-72
2023/05/28 10:29:20;;;;;;;6.57;3.15;;;23.80;66.80;;;;;;5036956;28;20208;-73
2023/05/28 10:31:55;;;;;;;7.32;2.92;;;23.70;67.20;;;;;;5034218;28;20306;-71
2023/05/28 10:34:32;;;;;;;4.68;2.67;;;24.20;67.90;;;;;;5020196;28;20204;-71
2023/05/28 10:37:04;;;;;;;4.75;2.90;;;24.80;66.70;;;;;;5016078;28;20215;-71
2023/05/28 10:39:45;;;;;;;5.82;2.55;;;25.20;65.80;;;;;;5019425;28;20219;-72
2023/05/28 10:42:15;;;;;;;3.88;2.25;;;24.70;66.20;;;;;;5033430;28;20199;-71
2023/05/28 10:44:59;;;;;;;4.95;2.65;;;25.00;66.50;;;;;;5011069;28;20180;-72
2023/05/28 10:47:35;;;;;;;4.95;2.42;;;25.40;67.40;;;;;;5035670;28;20227;-72
2023/05/28 10:50:11;;;;;;;4.35;2.20;;;25.30;65.10;;;;;;5035675;28;20219;-73
2023/05/28 10:52:37;;;;;;;4.90;2.97;;;25.50;65.80;;;;;;5030915;28;20203;-72
2023/05/28 10:55:05;;;;;;;5.97;2.90;;;24.60;65.50;;;;;;5036333;28;20764;-73
2023/05/28 10:57:46;;;;;;;5.00;2.90;;;24.10;66.90;;;;;;5031522;28;20216;-71
2023/05/28 11:00:21;;;;;;;4.63;2.65;;;23.90;68.10;;;;;;5028654;28;20200;-69
2023/05/28 11:02:51;;;;;;;3.63;2.58;;;24.10;67.70;;;;;;5039227;28;20222;-70
2023/05/28 11:05:22;;;;;;;6.28;2.92;;;23.80;67.70;;;;;;5033103;28;20196;-71
2023/05/28 11:07:47;;;;;;;4.80;3.15;;;23.90;67.90;;;;;;5023431;28;20240;-72
2023/05/28 11:10:15;;;;;;;6.55;3.03;;;24.00;68.40;;;;;;5037890;28;20246;-72
2023/05/28 11:12:42;;;;;;;4.00;2.42;;;24.00;68.30;;;;;;5012463;28;20256;-73
2023/05/28 11:15:13;;;;;;;4.63;2.65;;;23.90;67.60;;;;;;5034046;28;20685;-72
2023/05/28 11:17:49;;;;;;;3.63;3.00;;;24.50;68.60;;;;;;5014201;28;20231;-72
2023/05/28 11:20:25;;;;;;;6.13;2.92;;;24.40;66.30;;;;;;5013337;28;22033;-72
2023/05/28 11:22:52;;;;;;;4.25;2.42;;;24.10;66.70;;;;;;5030212;28;20208;-72
2023/05/28 11:25:21;;;;;;;5.13;2.60;;;24.50;68.00;;;;;;5032591;28;20231;-72
2023/05/28 11:27:50;;;;;;;3.13;2.50;;;24.60;66.70;;;;;;5034243;28;20208;-71
2023/05/28 11:30:17;;;;;;;6.00;2.28;;;24.60;66.70;;;;;;5034230;28;20176;-73
2023/05/28 11:32:44;;;;;;;4.90;2.40;;;23.80;66.30;;;;;;5017759;28;20185;-72
2023/05/28 11:35:12;;;;;;;3.90;2.53;;;23.80;66.90;;;;;;5017990;28;20215;-72
2023/05/28 11:37:39;;;;;;;3.90;2.20;;;23.50;67.90;;;;;;5017831;28;20270;-72
2023/05/28 11:40:09;;;;;;;5.10;2.35;;;23.50;68.10;;;;;;5038161;28;20216;-72
2023/05/28 11:42:36;;;;;;;7.22;2.83;;;23.70;68.60;;;;;;5036687;28;20208;-73
2023/05/28 11:45:02;;;;;;;5.53;2.38;;;24.30;68.30;;;;;;5039816;28;20176;-73
2023/05/28 11:47:32;;;;;;;5.82;2.58;;;24.40;66.80;;;;;;5037569;28;20243;-72
2023/05/28 11:49:58;;;;;;;3.45;2.45;;;24.60;67.20;;;;;;5015214;28;20200;-72
2023/05/28 11:52:25;;;;;;;5.00;3.03;;;24.50;65.90;;;;;;5031067;28;20679;-72
2023/05/28 11:54:56;;;;;;;4.25;3.22;;;24.60;65.80;;;;;;5033611;28;20212;-72
2023/05/28 11:57:26;;;;;;;5.45;3.13;;;24.80;66.40;;;;;;5035053;28;20200;-72
2023/05/28 11:59:59;;;;;;;4.75;3.00;;;24.30;65.70;;;;;;5017499;28;20209;-72
2023/05/28 12:02:25;;;;;;;4.38;2.55;;;23.70;66.50;;;;;;5032928;28;20322;-72
2023/05/28 12:05:00;;;;;;;5.03;2.78;;;23.50;66.80;;;;;;5038097;28;20663;-72
2023/05/28 12:07:33;;;;;;;4.72;2.30;;;23.40;66.70;;;;;;5035006;28;20297;-72
2023/05/28 12:10:09;;;;;;;4.47;2.33;;;23.50;67.20;;;;;;5039809;28;20208;-70
2023/05/28 12:12:41;;;;;;;5.32;2.40;;;23.80;66.30;;;;;;5038134;28;20214;-72
2023/05/28 12:15:07;;;;;;;5.00;2.70;;;23.90;66.20;;;;;;5036812;28;20215;-71
2023/05/28 12:17:36;;;;;;;5.88;2.45;;;24.10;67.10;;;;;;5017800;28;20678;-73
2023/05/28 12:20:06;;;;;;;4.65;2.05;;;24.30;65.00;;;;;;5018714;28;20215;-71
2023/05/28 12:22:32;;;;;;;3.50;2.50;;;24.30;64.50;;;;;;5022811;28;20203;-71
2023/05/28 12:24:58;;;;;;;5.50;2.60;;;24.30;64.90;;;;;;5039882;28;20207;-71
2023/05/28 12:27:24;;;;;;;8.52;2.70;;;23.90;63.60;;;;;;5044753;28;20212;-71
2023/05/28 12:29:50;;;;;;;4.15;2.30;;;23.50;64.30;;;;;;5013929;28;20203;-70
2023/05/28 12:32:15;;;;;;;4.40;2.92;;;23.40;63.00;;;;;;5016145;28;20208;-70
2023/05/28 12:34:41;;;;;;;4.97;2.30;;;23.60;64.60;;;;;;5033893;28;20204;-71
2023/05/28 12:37:07;;;;;;;5.53;2.30;;;23.60;64.60;;;;;;5017857;28;20217;-74
2023/05/28 12:39:32;;;;;;;5.15;2.38;;;23.50;64.90;;;;;;5035343;28;20221;-71
2023/05/28 12:41:58;;;;;;;3.25;2.10;;;23.30;64.70;;;;;;5019574;28;20176;-71
2023/05/28 12:44:24;;;;;;;3.90;2.13;;;23.20;64.10;;;;;;5035572;28;20227;-71